createdAt,value
2018-11-25T00:00:31.287Z,51.43
2018-11-25T00:02:59.670Z,56.93
2018-11-25T00:05:28.015Z,52.80
2018-11-25T00:07:56.317Z,55.63
2018-11-25T00:10:24.933Z,59.13
2018-11-25T00:12:53.384Z,54.80
2018-11-25T00:15:21.714Z,52.40
2018-11-25T00:17:50.080Z,55.80
2018-11-25T00:20:18.434Z,52.40
2018-11-25T00:22:47.634Z,57.83
2018-11-25T00:25:16.968Z,51.20
2018-11-25T00:27:45.439Z,56.67
2018-11-25T00:30:14.601Z,53.20
2018-11-25T00:32:43.068Z,49.03
2018-11-25T00:35:12.511Z,59.67
2018-11-25T00:37:48.065Z,51.37
2018-11-25T00:40:12.044Z,59.27
2018-11-25T00:42:40.592Z,51.67
2018-11-25T00:45:11.490Z,60.07
2018-11-25T00:47:41.117Z,55.70
2018-11-25T00:50:10.705Z,49.57
2018-11-25T00:52:39.031Z,48.30
2018-11-25T00:55:12.768Z,55.30
2018-11-25T00:57:41.536Z,47.57
2018-11-25T01:00:14.552Z,52.77
2018-11-25T01:02:42.935Z,47.90
2018-11-25T01:05:11.560Z,52.73
2018-11-25T01:07:39.989Z,46.47
2018-11-25T01:10:10.124Z,41.60
2018-11-25T01:12:38.471Z,45.70
2018-11-25T01:15:09.085Z,54.63
2018-11-25T01:17:37.351Z,48.13
2018-11-25T01:20:07.563Z,51.03
2018-11-25T01:22:35.847Z,37.70
2018-11-25T01:25:04.254Z,35.87
2018-11-25T01:27:32.538Z,38.60
2018-11-25T01:30:00.938Z,40.93
2018-11-25T01:32:30.497Z,37.53
2018-11-25T01:35:01.186Z,35.23
2018-11-25T01:37:25.866Z,34.07
2018-11-25T01:39:54.129Z,33.50
2018-11-25T01:42:22.391Z,38.80
2018-11-25T01:44:50.802Z,34.87
2018-11-25T01:47:19.262Z,37.27
2018-11-25T01:49:47.580Z,36.70
2018-11-25T01:52:15.857Z,36.47
2018-11-25T01:54:44.143Z,40.53
2018-11-25T01:57:12.451Z,33.57
2018-11-25T01:59:40.786Z,32.67
2018-11-25T02:02:09.619Z,34.00
2018-11-25T02:04:37.910Z,30.57
2018-11-25T02:07:06.890Z,32.67
2018-11-25T02:09:36.007Z,29.50
2018-11-25T02:12:04.283Z,32.73
2018-11-25T02:14:32.667Z,27.90
2018-11-25T02:17:01.003Z,31.23
2018-11-25T02:19:29.299Z,31.63
2018-11-25T02:21:57.621Z,27.97
2018-11-25T02:24:25.894Z,33.37
2018-11-25T02:26:54.163Z,30.97
2018-11-25T02:29:22.811Z,36.77
2018-11-25T02:31:51.121Z,34.37
2018-11-25T02:34:20.215Z,31.70
2018-11-25T02:36:48.510Z,27.40
2018-11-25T02:39:16.779Z,26.97
2018-11-25T02:41:45.055Z,32.83
2018-11-25T02:52:53.585Z,40.37
2018-11-25T02:55:24.994Z,38.30
2018-11-25T02:57:53.296Z,37.57
2018-11-25T03:00:21.514Z,42.50
2018-11-25T03:02:49.882Z,39.93
2018-11-25T03:05:18.239Z,37.90
2018-11-25T03:07:46.484Z,37.47
2018-11-25T03:10:15.176Z,37.23
2018-11-25T03:12:43.459Z,44.43
2018-11-25T03:15:16.167Z,41.17
2018-11-25T03:17:44.475Z,46.53
2018-11-25T03:20:13.506Z,40.80
2018-11-25T03:22:41.775Z,40.53
2018-11-25T03:25:12.347Z,43.43
2018-11-25T03:27:40.624Z,45.83
2018-11-25T03:30:11.407Z,40.60
2018-11-25T03:32:39.664Z,41.13
2018-11-25T03:35:09.950Z,49.90
2018-11-25T03:37:38.233Z,44.80
2018-11-25T03:40:08.407Z,42.77
2018-11-25T03:42:36.680Z,45.40
2018-11-25T03:45:07.107Z,35.27
2018-11-25T03:47:35.387Z,37.83
2018-11-25T03:50:03.739Z,47.67
2018-11-25T03:52:32.054Z,38.97
2018-11-25T03:55:00.330Z,43.27
2018-11-25T03:57:28.605Z,56.77
2018-11-25T03:59:56.891Z,42.40
2018-11-25T04:02:25.192Z,42.97
2018-11-25T04:04:53.850Z,37.27
2018-11-25T04:07:22.507Z,43.37
2018-11-25T04:09:50.782Z,42.80
2018-11-25T04:12:19.123Z,43.43
2018-11-25T04:14:47.419Z,47.60
2018-11-25T04:17:15.691Z,47.87
2018-11-25T04:19:43.965Z,39.40
2018-11-25T04:22:12.271Z,46.67
2018-11-25T04:24:40.724Z,44.13
2018-11-25T04:27:08.970Z,43.07
2018-11-25T04:29:37.247Z,41.10
2018-11-25T04:32:05.681Z,37.17
2018-11-25T04:34:33.990Z,44.77
2018-11-25T04:37:02.298Z,45.67
2018-11-25T04:39:30.596Z,47.33
2018-11-25T04:41:58.842Z,54.27
2018-11-25T04:44:27.522Z,49.63
2018-11-25T04:46:55.774Z,59.77
2018-11-25T04:49:24.073Z,52.23
2018-11-25T04:51:52.387Z,51.70
2018-11-25T04:54:20.683Z,43.10
2018-11-25T04:56:48.950Z,49.40
2018-11-25T04:59:17.257Z,42.70
2018-11-25T05:01:45.535Z,48.03
2018-11-25T05:04:13.813Z,51.53
2018-11-25T05:06:42.087Z,58.57
2018-11-25T05:09:10.385Z,52.83
2018-11-25T05:11:38.638Z,56.73
2018-11-25T05:14:06.955Z,56.77
2018-11-25T05:16:35.287Z,48.27
2018-11-25T05:19:03.539Z,45.57
2018-11-25T05:21:31.793Z,47.93
2018-11-25T05:24:00.076Z,63.20
2018-11-25T05:26:28.404Z,51.07
2018-11-25T05:28:56.691Z,53.20
2018-11-25T05:31:25.055Z,60.10
2018-11-25T05:33:53.581Z,62.50
2018-11-25T05:36:21.880Z,49.87
2018-11-25T05:38:50.121Z,46.73
2018-11-25T05:41:18.378Z,54.27
2018-11-25T05:43:46.657Z,49.70
2018-11-25T05:46:14.920Z,54.27
2018-11-25T05:48:43.860Z,59.30
2018-11-25T05:51:12.555Z,62.30
2018-11-25T05:53:40.855Z,56.13
2018-11-25T05:56:09.074Z,47.93
2018-11-25T05:58:38.972Z,45.13
2018-11-25T06:01:07.266Z,57.33
2018-11-25T06:03:35.552Z,61.97
2018-11-25T06:06:03.814Z,44.60
2018-11-25T06:08:32.078Z,40.30
2018-11-25T06:11:00.517Z,41.90
2018-11-25T06:13:28.897Z,57.13
2018-11-25T06:15:58.095Z,48.90
2018-11-25T06:18:27.221Z,55.40
2018-11-25T06:20:55.521Z,59.70
2018-11-25T06:23:23.884Z,60.67
2018-11-25T06:25:52.194Z,53.83
2018-11-25T06:28:20.651Z,55.23
2018-11-25T06:30:48.960Z,54.73
2018-11-25T06:33:17.229Z,58.23
2018-11-25T06:35:45.573Z,52.93
2018-11-25T06:38:14.097Z,68.83
2018-11-25T06:40:42.434Z,59.10
2018-11-25T06:43:10.698Z,66.63
2018-11-25T06:45:38.973Z,65.37
2018-11-25T06:48:07.525Z,66.10
2018-11-25T06:50:35.821Z,62.17
2018-11-25T06:53:05.017Z,56.10
2018-11-25T06:55:33.286Z,91.87
2018-11-25T06:58:01.664Z,67.67
2018-11-25T07:00:29.947Z,63.20
2018-11-25T07:02:58.226Z,54.20
2018-11-25T07:05:26.477Z,62.13
2018-11-25T07:07:54.750Z,62.47
2018-11-25T07:10:23.325Z,61.43
2018-11-25T07:12:52.530Z,61.60
2018-11-25T07:15:20.903Z,54.03
2018-11-25T07:17:49.299Z,64.27
2018-11-25T07:20:18.174Z,60.13
2018-11-25T07:22:46.719Z,55.40
2018-11-25T07:25:20.511Z,61.20
2018-11-25T07:27:48.811Z,92.50
2018-11-25T07:30:21.267Z,57.23
2018-11-25T07:32:49.524Z,71.73
2018-11-25T07:35:18.744Z,74.67
2018-11-25T07:37:47.083Z,83.87
2018-11-25T07:40:17.388Z,72.77
2018-11-25T07:42:45.726Z,62.07
2018-11-25T07:45:15.037Z,67.33
2018-11-25T07:47:43.328Z,74.97
2018-11-25T07:50:12.374Z,66.33
2018-11-25T07:52:41.309Z,73.07
2018-11-25T07:55:12.149Z,63.87
2018-11-25T07:57:40.579Z,71.13
2018-11-25T08:00:17.193Z,71.80
2018-11-25T08:02:45.474Z,76.67
2018-11-25T08:05:16.967Z,72.43
2018-11-25T08:07:45.371Z,64.17
2018-11-25T08:10:14.521Z,75.70
2018-11-25T08:12:42.907Z,67.53
2018-11-25T08:15:14.865Z,80.77
2018-11-25T08:17:43.115Z,69.73
2018-11-25T08:20:15.151Z,62.97
2018-11-25T08:22:43.463Z,68.43
2018-11-25T08:25:12.723Z,61.60
2018-11-25T08:27:41.004Z,65.10
2018-11-25T08:30:24.592Z,76.37
2018-11-25T08:32:53.114Z,67.63
2018-11-25T08:35:22.706Z,71.13
2018-11-25T08:37:50.990Z,69.00
2018-11-25T08:40:22.953Z,60.30
2018-11-25T08:42:51.323Z,62.00
2018-11-25T08:45:19.655Z,58.70
2018-11-25T08:47:47.929Z,55.63
2018-11-25T08:50:17.025Z,60.30
2018-11-25T08:52:46.927Z,60.70
2018-11-25T08:55:16.865Z,70.97
2018-11-25T08:57:45.200Z,68.60
2018-11-25T09:00:14.523Z,72.67
2018-11-25T09:02:42.850Z,64.47
2018-11-25T09:05:12.082Z,70.27
2018-11-25T09:07:40.342Z,74.33
2018-11-25T09:10:13.618Z,70.83
2018-11-25T09:12:42.083Z,68.80
2018-11-25T09:15:15.278Z,69.50
2018-11-25T09:17:43.636Z,65.33
2018-11-25T09:20:13.115Z,66.00
2018-11-25T09:22:41.542Z,64.17
2018-11-25T09:25:14.035Z,70.93
2018-11-25T09:27:43.031Z,69.33
2018-11-25T09:30:15.291Z,79.77
2018-11-25T09:32:43.590Z,73.10
2018-11-25T09:35:12.003Z,86.57
2018-11-25T09:37:40.272Z,80.40
2018-11-25T09:40:12.622Z,67.07
2018-11-25T09:42:40.955Z,80.43
2018-11-25T09:45:10.734Z,87.83
2018-11-25T09:47:38.951Z,77.53
2018-11-25T09:50:09.190Z,78.20
2018-11-25T09:52:37.670Z,89.50
2018-11-25T09:55:08.292Z,82.23
2018-11-25T09:57:36.582Z,83.07
2018-11-25T10:00:10.616Z,90.90
2018-11-25T10:02:38.912Z,84.50
2018-11-25T10:05:07.342Z,83.43
2018-11-25T10:07:35.687Z,94.83
2018-11-25T10:10:04.209Z,84.33
2018-11-25T10:12:32.434Z,98.23
2018-11-25T10:15:00.741Z,95.00
2018-11-25T10:17:29.025Z,103.33
2018-11-25T10:19:57.327Z,101.70
2018-11-25T10:22:25.630Z,107.30
2018-11-25T10:24:53.895Z,94.87
2018-11-25T10:27:22.252Z,100.63
2018-11-25T10:29:50.707Z,79.10
2018-11-25T10:32:19.030Z,72.47
2018-11-25T10:34:47.313Z,71.57
2018-11-25T10:37:15.724Z,68.83
2018-11-25T10:39:44.021Z,65.70
2018-11-25T10:42:12.267Z,75.23
2018-11-25T10:44:40.621Z,71.50
2018-11-25T10:47:08.887Z,73.00
2018-11-25T10:49:37.226Z,67.37
2018-11-25T10:52:05.558Z,66.17
2018-11-25T10:54:33.831Z,72.17
2018-11-25T10:57:02.222Z,66.10
2018-11-25T10:59:30.561Z,71.07
2018-11-25T11:04:10.167Z,78.47
2018-11-25T11:06:43.823Z,77.20
2018-11-25T11:09:12.244Z,80.20
2018-11-25T11:11:41.064Z,78.27
2018-11-25T11:14:10.692Z,68.33
2018-11-25T11:16:38.996Z,77.10
2018-11-25T11:19:07.475Z,79.83
2018-11-25T11:21:35.777Z,79.40
2018-11-25T11:24:04.278Z,68.40
2018-11-25T11:26:32.643Z,81.20
2018-11-25T11:29:01.092Z,75.53
2018-11-25T11:31:29.397Z,66.10
2018-11-25T11:33:57.675Z,82.70
2018-11-25T11:36:26.006Z,82.83
2018-11-25T11:38:54.670Z,73.57
2018-11-25T11:41:22.937Z,66.63
2018-11-25T11:43:51.256Z,73.80
2018-11-25T11:46:19.601Z,77.60
2018-11-25T11:48:47.891Z,74.07
2018-11-25T11:51:16.219Z,72.07
2018-11-25T11:53:44.933Z,69.67
2018-11-25T11:56:13.464Z,68.83
2018-11-25T11:58:41.745Z,74.77
2018-11-25T12:01:10.055Z,66.80
2018-11-25T12:03:38.298Z,73.63
2018-11-25T12:06:07.602Z,70.53
2018-11-25T12:08:35.946Z,69.27
2018-11-25T12:11:04.356Z,72.90
2018-11-25T12:13:32.666Z,63.67
2018-11-25T12:16:01.051Z,69.10
2018-11-25T12:18:29.347Z,61.57
2018-11-25T12:20:57.701Z,55.77
2018-11-25T12:23:26.082Z,67.27
2018-11-25T12:25:54.491Z,58.67
2018-11-25T12:28:22.903Z,60.37
2018-11-25T12:30:51.239Z,68.20
2018-11-25T12:33:19.565Z,64.23
2018-11-25T12:35:47.924Z,65.60
2018-11-25T12:38:16.212Z,63.63
2018-11-25T12:40:44.518Z,73.93
2018-11-25T12:43:12.854Z,76.13
2018-11-25T12:45:41.204Z,78.87
2018-11-25T12:48:09.490Z,73.90
2018-11-25T12:50:37.864Z,78.30
2018-11-25T12:53:06.349Z,68.43
2018-11-25T12:55:34.724Z,64.40
2018-11-25T12:58:03.220Z,62.57
2018-11-25T13:00:36.797Z,67.03
2018-11-25T13:03:06.065Z,75.10
2018-11-25T13:05:35.035Z,74.80
2018-11-25T13:08:04.372Z,75.70
2018-11-25T13:10:32.742Z,73.40
2018-11-25T13:13:01.066Z,75.40
2018-11-25T13:15:29.403Z,77.00
2018-11-25T13:17:57.777Z,69.77
2018-11-25T13:20:26.177Z,74.70
2018-11-25T13:22:54.568Z,69.43
2018-11-25T13:25:23.011Z,72.00
2018-11-25T13:27:51.430Z,74.33
2018-11-25T13:30:21.731Z,66.40
2018-11-25T13:32:50.976Z,66.03
2018-11-25T13:35:19.334Z,69.30
2018-11-25T13:37:47.570Z,73.07
2018-11-25T13:40:16.522Z,63.37
2018-11-25T13:42:44.904Z,69.03
2018-11-25T13:45:13.246Z,74.73
2018-11-25T13:47:41.534Z,64.60
2018-11-25T13:50:10.867Z,70.73
2018-11-25T13:52:39.206Z,64.80
2018-11-25T13:55:13.638Z,59.33
2018-11-25T13:57:41.953Z,60.17
2018-11-25T14:00:16.031Z,59.63
2018-11-25T14:02:44.306Z,66.93
2018-11-25T14:05:12.607Z,65.70
2018-11-25T14:07:40.855Z,63.40
2018-11-25T14:10:14.000Z,70.87
2018-11-25T14:12:42.306Z,64.57
2018-11-25T14:15:11.055Z,69.57
2018-11-25T14:17:39.403Z,59.47
2018-11-25T14:20:09.139Z,64.73
2018-11-25T14:22:37.478Z,67.40
2018-11-25T14:25:08.575Z,56.30
2018-11-25T14:27:36.855Z,61.60
2018-11-25T14:30:13.498Z,66.80
2018-11-25T14:32:38.814Z,59.73
2018-11-25T14:35:09.183Z,58.87
2018-11-25T14:37:37.464Z,62.73
2018-11-25T14:40:08.226Z,59.43
2018-11-25T14:42:36.727Z,66.50
2018-11-25T14:45:06.230Z,62.37
2018-11-25T14:47:34.531Z,63.80
2018-11-25T14:50:02.892Z,67.20
2018-11-25T14:52:31.173Z,61.07
2018-11-25T14:54:59.675Z,68.17
2018-11-25T14:57:27.924Z,46.60
2018-11-25T14:59:56.317Z,62.47
2018-11-25T15:02:24.572Z,58.43
2018-11-25T15:04:53.058Z,65.63
2018-11-25T15:07:21.379Z,59.63
2018-11-25T15:09:49.705Z,58.10
2018-11-25T15:12:18.126Z,62.00
2018-11-25T15:14:46.463Z,58.23
2018-11-25T15:17:14.789Z,52.37
2018-11-25T15:19:43.180Z,50.53
2018-11-25T15:22:11.441Z,48.73
2018-11-25T15:24:39.723Z,53.13
2018-11-25T15:27:08.210Z,57.80
2018-11-25T15:29:36.543Z,43.07
2018-11-25T15:32:04.921Z,48.93
2018-11-25T15:34:33.290Z,50.63
2018-11-25T15:37:01.880Z,55.53
2018-11-25T15:39:31.217Z,72.55
2018-11-25T15:41:59.724Z,68.63
2018-11-25T15:44:28.079Z,60.30
2018-11-25T15:46:56.435Z,57.27
2018-11-25T15:49:24.868Z,57.60
2018-11-25T15:51:53.231Z,59.67
2018-11-25T15:54:21.546Z,72.47
2018-11-25T15:56:49.896Z,66.57
2018-11-25T15:59:18.212Z,56.70
2018-11-25T16:01:47.593Z,71.60
2018-11-25T16:04:17.022Z,74.50
2018-11-25T16:06:45.644Z,78.17
2018-11-25T16:09:14.013Z,70.10
2018-11-25T16:11:42.407Z,70.27
2018-11-25T16:14:10.833Z,73.33
2018-11-25T16:16:39.149Z,68.63
2018-11-25T16:19:07.553Z,75.53
2018-11-25T16:21:35.940Z,70.33
2018-11-25T16:24:04.320Z,60.37
2018-11-25T16:26:34.559Z,61.67
2018-11-25T16:29:08.677Z,61.10
2018-11-25T16:31:37.144Z,64.27
2018-11-25T16:34:05.547Z,67.90
2018-11-25T16:36:34.870Z,66.63
2018-11-25T16:39:03.535Z,71.13
2018-11-25T16:41:31.904Z,67.87
2018-11-25T16:44:00.411Z,77.12
2018-11-25T16:46:29.800Z,70.83
2018-11-25T16:48:58.134Z,62.73
2018-11-25T16:51:26.557Z,66.20
2018-11-25T16:53:55.141Z,64.97
2018-11-25T16:56:23.491Z,66.53
2018-11-25T16:58:51.892Z,68.13
2018-11-25T17:01:20.266Z,57.07
2018-11-25T17:03:49.675Z,62.40
2018-11-25T17:06:18.009Z,63.63
2018-11-25T17:08:46.482Z,68.00
2018-11-25T17:11:14.765Z,57.37
2018-11-25T17:13:43.200Z,61.83
2018-11-25T17:16:11.574Z,61.20
2018-11-25T17:18:40.112Z,63.67
2018-11-25T17:21:09.522Z,66.63
2018-11-25T17:23:37.987Z,67.83
2018-11-25T17:26:06.326Z,64.87
2018-11-25T17:28:35.825Z,76.93
2018-11-25T17:31:04.199Z,74.87
2018-11-25T17:33:32.533Z,79.60
2018-11-25T17:36:00.922Z,80.63
2018-11-25T17:38:29.298Z,79.80
2018-11-25T17:40:58.641Z,87.13
2018-11-25T17:43:27.084Z,79.60
2018-11-25T17:45:56.565Z,77.17
2018-11-25T17:48:25.042Z,77.07
2018-11-25T17:50:54.437Z,74.53
2018-11-25T17:53:22.738Z,69.83
2018-11-25T17:55:51.646Z,91.60
2018-11-25T17:58:19.895Z,92.50
2018-11-25T18:00:53.878Z,89.27
2018-11-25T18:03:26.399Z,84.23
2018-11-25T18:05:54.744Z,97.37
2018-11-25T18:08:23.159Z,103.80
2018-11-25T18:10:51.601Z,99.73
2018-11-25T18:13:21.386Z,95.13
2018-11-25T18:15:51.568Z,98.83
2018-11-25T18:18:26.566Z,104.53
2018-11-25T18:21:00.757Z,120.53
2018-11-25T18:23:30.744Z,104.23
2018-11-25T18:25:59.119Z,119.37
2018-11-25T18:28:27.427Z,105.63
2018-11-25T18:30:55.696Z,110.80
2018-11-25T18:33:25.069Z,105.57
2018-11-25T18:35:53.332Z,129.83
2018-11-25T18:38:21.724Z,120.10
2018-11-25T18:40:50.410Z,122.67
2018-11-25T18:43:18.701Z,110.77
2018-11-25T18:45:47.035Z,115.67
2018-11-25T18:48:16.267Z,103.17
2018-11-25T18:50:44.635Z,110.27
2018-11-25T18:53:13.283Z,112.97
2018-11-25T18:55:40.500Z,103.40
2018-11-25T18:58:09.002Z,101.67
2018-11-25T19:00:41.998Z,103.10
2018-11-25T19:03:10.324Z,129.30
2018-11-25T19:05:38.638Z,103.50
2018-11-25T19:08:08.177Z,100.10
2018-11-25T19:10:36.558Z,105.10
2018-11-25T19:13:05.005Z,103.07
2018-11-25T19:15:33.423Z,103.03
2018-11-25T19:18:01.855Z,102.43
2018-11-25T19:20:30.283Z,106.27
2018-11-25T19:22:59.232Z,116.60
2018-11-25T19:25:27.621Z,95.57
2018-11-25T19:27:56.711Z,107.80
2018-11-25T19:30:26.766Z,107.13
2018-11-25T19:32:53.527Z,107.93
2018-11-25T19:35:22.569Z,100.23
2018-11-25T19:37:52.599Z,110.90
2018-11-25T19:40:22.262Z,114.53
2018-11-25T19:42:50.572Z,113.43
2018-11-25T19:45:20.078Z,112.43
2018-11-25T19:47:48.450Z,112.73
2018-11-25T19:50:21.160Z,123.30
2018-11-25T19:52:49.507Z,113.23
2018-11-25T19:55:17.955Z,111.70
2018-11-25T19:57:46.236Z,118.43
2018-11-25T20:00:18.856Z,122.37
2018-11-25T20:02:47.169Z,106.53
2018-11-25T20:05:15.610Z,123.47
2018-11-25T20:07:44.181Z,120.67
2018-11-25T20:10:15.522Z,118.07
2018-11-25T20:12:46.408Z,120.07
2018-11-25T20:15:15.740Z,134.87
2018-11-25T20:17:44.197Z,151.32
2018-11-25T20:20:17.752Z,118.77
2018-11-25T20:22:47.339Z,118.17
2018-11-25T20:25:15.991Z,128.50
2018-11-25T20:27:47.371Z,110.80
2018-11-25T20:30:17.525Z,118.33
2018-11-25T20:32:51.185Z,97.73
2018-11-25T20:35:19.598Z,108.57
2018-11-25T20:37:53.098Z,112.93
2018-11-25T20:40:21.383Z,104.67
2018-11-25T20:42:49.735Z,108.40
2018-11-25T20:45:24.387Z,101.97
2018-11-25T20:47:54.165Z,110.13
2018-11-25T20:50:22.514Z,92.20
2018-11-25T20:52:56.444Z,97.83
2018-11-25T20:55:27.810Z,103.97
2018-11-25T20:57:57.098Z,89.03
2018-11-25T21:00:26.589Z,91.53
2018-11-25T21:02:54.992Z,97.77
2018-11-25T21:05:25.169Z,102.33
2018-11-25T21:07:53.486Z,87.17
2018-11-25T21:10:21.863Z,90.53
2018-11-25T21:12:52.268Z,91.63
2018-11-25T21:15:21.864Z,93.47
2018-11-25T21:17:50.289Z,78.40
2018-11-25T21:20:22.084Z,91.23
2018-11-25T21:22:50.374Z,84.30
2018-11-25T21:25:20.737Z,88.67
2018-11-25T21:27:49.138Z,79.83
2018-11-25T21:30:19.431Z,86.53
2018-11-25T21:32:48.859Z,82.43
2018-11-25T21:35:17.089Z,87.07
2018-11-25T21:37:45.366Z,75.63
2018-11-25T21:40:19.946Z,80.60
2018-11-25T21:42:49.096Z,85.30
2018-11-25T21:45:18.850Z,83.00
2018-11-25T21:47:47.934Z,83.13
2018-11-25T21:50:20.255Z,78.03
2018-11-25T21:52:48.544Z,84.10
2018-11-25T21:55:17.523Z,81.00
2018-11-25T21:57:45.994Z,77.60
2018-11-25T22:00:17.366Z,85.23
2018-11-25T22:02:45.658Z,79.87
2018-11-25T22:05:14.329Z,79.43
2018-11-25T22:07:42.731Z,79.43
2018-11-25T22:10:12.994Z,80.10
2018-11-25T22:12:41.683Z,79.43
2018-11-25T22:15:12.084Z,82.47
2018-11-25T22:17:40.557Z,77.37
2018-11-25T22:20:09.883Z,88.67
2018-11-25T22:22:38.196Z,73.63
2018-11-25T22:25:09.641Z,69.80
2018-11-25T22:27:37.946Z,84.97
2018-11-25T22:30:09.194Z,73.57
2018-11-25T22:32:37.683Z,71.30
2018-11-25T22:35:08.172Z,72.03
2018-11-25T22:37:36.532Z,80.80
2018-11-25T22:40:06.264Z,73.77
2018-11-25T22:42:34.545Z,71.23
2018-11-25T22:45:03.058Z,75.03
2018-11-25T22:47:31.495Z,72.70
2018-11-25T22:49:59.826Z,69.70
2018-11-25T22:52:28.263Z,72.70
2018-11-25T22:54:56.538Z,71.93
2018-11-25T22:57:24.810Z,66.80
2018-11-25T22:59:53.054Z,71.50
2018-11-25T23:02:28.862Z,76.27
2018-11-25T23:05:08.442Z,68.20
2018-11-25T23:07:36.710Z,72.00
2018-11-25T23:10:05.108Z,75.93
2018-11-25T23:12:33.378Z,73.80
2018-11-25T23:15:01.858Z,75.53
2018-11-25T23:17:30.111Z,73.40
2018-11-25T23:19:58.410Z,75.23
2018-11-25T23:22:26.700Z,73.50
2018-11-25T23:24:55.091Z,74.43
2018-11-25T23:27:23.343Z,80.20
2018-11-25T23:29:52.476Z,70.57
2018-11-25T23:32:20.781Z,68.50
2018-11-25T23:34:49.050Z,72.00
2018-11-25T23:37:17.331Z,75.80
2018-11-25T23:39:45.776Z,76.50
2018-11-25T23:42:14.052Z,64.73
2018-11-25T23:44:42.487Z,74.70
2018-11-25T23:47:10.861Z,66.57
2018-11-25T23:49:39.084Z,70.23
2018-11-25T23:52:07.382Z,61.90
2018-11-25T23:54:35.654Z,68.53
2018-11-25T23:57:04.284Z,63.30
2018-11-25T23:59:33.050Z,72.67
